Time;durP1;ratioP1;P1;durP2;ratioP2;P2;SDS_P1;SDS_P2;PMS_P1;PMS_P2;Temp;Humidity;BMP_temperature;BMP_pressure;BME280_temperature;BME280_humidity;BME280_pressure;Samples;Min_cycle;Max_cycle;Signal;HPM_P1;HPM_P2
2022/12/22 03:29:54;;;;;;;23.65;11.35;;;;;;;-5.91;93.54;101377.56;10617224;28;20062;-71
2022/12/22 03:34:55;;;;;;;24.33;11.00;;;;;;;-5.91;93.43;101351.69;10616883;28;20039;-72
2022/12/22 03:39:56;;;;;;;25.13;11.05;;;;;;;-5.85;93.00;101364.47;10614983;28;20039;-71
2022/12/22 03:50:16;;;;;;;23.90;10.70;;;;;;;-6.00;93.39;101351.06;10614261;28;20055;-70
2022/12/22 03:55:16;;;;;;;19.77;9.70;;;;;;;-5.86;93.10;101365.34;10536055;28;20044;-69
2022/12/22 04:00:18;;;;;;;17.85;9.32;;;;;;;-5.65;92.70;101389.84;10518127;28;20032;-68
2022/12/22 04:05:20;;;;;;;15.88;8.38;;;;;;;-5.66;92.35;101403.69;10536150;28;20131;-69
2022/12/22 04:15:40;;;;;;;28.58;11.35;;;;;;;-5.86;92.16;101393.81;10535696;28;20040;-67
2022/12/22 04:20:41;;;;;;;31.77;12.57;;;;;;;-6.04;92.27;101359.78;10540601;28;20043;-72
2022/12/22 04:25:42;;;;;;;19.63;8.52;;;;;;;-6.23;92.01;101319.72;10543418;28;20047;-69
2022/12/22 04:30:42;;;;;;;20.05;7.45;;;;;;;-5.75;91.92;101394.41;10542769;28;20050;-68
2022/12/22 04:35:43;;;;;;;15.00;6.85;;;;;;;-5.89;91.74;101387.00;10525806;28;20139;-71
2022/12/22 04:40:44;;;;;;;14.55;7.63;;;;;;;-5.77;91.67;101404.81;10542480;28;20152;-71
2022/12/22 04:45:45;;;;;;;20.05;7.57;;;;;;;-5.66;91.59;101409.69;10541423;28;20089;-71
2022/12/22 04:50:49;;;;;;;13.20;7.03;;;;;;;-5.81;91.42;101386.78;10542871;28;20032;-71
2022/12/22 04:55:55;;;;;;;13.82;7.15;;;;;;;-5.59;91.25;101416.44;10593688;27;20042;-71
2022/12/22 05:00:56;;;;;;;20.70;7.93;;;;;;;-5.82;91.20;101370.41;10619165;27;20043;-71
2022/12/22 05:05:57;;;;;;;16.50;7.72;;;;;;;-5.43;91.53;101436.75;10626457;27;20043;-71
2022/12/22 05:10:57;;;;;;;13.35;7.60;;;;;;;-5.43;91.71;101421.22;10626490;27;20032;-71
2022/12/22 05:16:11;;;;;;;13.52;6.93;;;;;;;-5.25;90.10;101431.09;10626078;27;20035;-71
2022/12/22 05:21:20;;;;;;;15.25;6.97;;;;;;;-5.06;90.88;101445.25;10625633;27;20039;-71
2022/12/22 05:26:33;;;;;;;16.08;7.72;;;;;;;-5.22;89.42;101402.53;10625925;27;20046;-71
2022/12/22 05:31:34;;;;;;;11.63;6.82;;;;;;;-4.91;90.02;101435.34;10624898;27;20042;-71
2022/12/22 05:36:35;;;;;;;12.88;6.68;;;;;;;-4.82;90.19;101422.13;10625276;27;20084;-71
2022/12/22 05:41:35;;;;;;;12.00;7.10;;;;;;;-4.65;89.85;101425.09;10624975;27;20543;-71
2022/12/22 05:46:36;;;;;;;18.90;7.53;;;;;;;-4.17;89.93;101437.50;10624594;27;20418;-71
2022/12/22 05:51:37;;;;;;;13.63;7.05;;;;;;;-3.64;88.75;101443.66;10624528;27;20490;-71
2022/12/22 05:56:37;;;;;;;18.70;7.75;;;;;;;-3.47;87.96;101438.72;10623856;27;20038;-71
2022/12/22 06:01:38;;;;;;;15.30;8.20;;;;;;;-3.63;88.29;101402.03;10624204;27;20035;-71
2022/12/22 06:06:39;;;;;;;12.18;7.10;;;;;;;-3.27;88.23;101448.44;10624020;27;20498;-71
2022/12/22 06:11:40;;;;;;;11.30;6.45;;;;;;;-3.15;88.07;101440.22;10623457;27;20038;-71
2022/12/22 06:16:40;;;;;;;12.35;6.90;;;;;;;-3.32;88.48;101355.06;10623062;27;20046;-71
2022/12/22 06:21:41;;;;;;;11.70;7.00;;;;;;;-2.93;88.22;101398.72;10623952;27;20037;-71
2022/12/22 06:26:42;;;;;;;12.77;7.45;;;;;;;-3.00;87.77;101358.25;10622822;27;20039;-71
2022/12/22 06:31:42;;;;;;;11.77;6.88;;;;;;;-3.57;88.22;101255.53;10624058;27;20393;-71
2022/12/22 06:36:45;;;;;;;14.05;6.88;;;;;;;-2.97;88.68;101349.50;10623560;27;20046;-71
2022/12/22 06:47:05;;;;;;;12.93;7.47;;;;;;;-2.40;88.19;101421.88;10622974;27;20055;-71
2022/12/22 06:52:08;;;;;;;14.27;6.63;;;;;;;-2.18;87.91;101418.47;10622652;27;20051;-71
2022/12/22 06:57:09;;;;;;;10.57;6.70;;;;;;;-2.14;87.70;101423.47;10604115;27;20140;-71
2022/12/22 07:02:10;;;;;;;16.83;7.40;;;;;;;-2.39;88.78;101350.72;10622662;27;20112;-71
2022/12/22 07:07:11;;;;;;;13.82;7.40;;;;;;;-1.85;88.78;101405.84;10621581;28;20125;-71
2022/12/22 07:12:12;;;;;;;11.32;6.72;;;;;;;-1.91;88.42;101388.72;10621540;28;20121;-71
2022/12/22 07:17:13;;;;;;;11.95;7.57;;;;;;;-1.72;88.54;101407.03;10621938;28;20039;-71
2022/12/22 07:22:14;;;;;;;11.10;7.43;;;;;;;-2.11;88.69;101306.19;10622163;28;20070;-71
2022/12/22 07:27:15;;;;;;;13.30;7.93;;;;;;;-1.34;87.81;101403.75;10621184;28;20107;-71
2022/12/22 07:32:15;;;;;;;11.90;8.00;;;;;;;-1.25;88.06;101408.56;10621823;28;20398;-71
2022/12/22 07:37:16;;;;;;;13.35;7.82;;;;;;;-1.13;87.09;101394.16;10621621;28;20046;-71
2022/12/22 07:47:36;;;;;;;16.73;8.70;;;;;;;-1.61;87.02;101310.19;10621298;28;20055;-71
2022/12/22 07:52:37;;;;;;;12.23;7.47;;;;;;;-1.56;87.33;101308.22;10624151;27;20031;-71
2022/12/22 07:57:38;;;;;;;15.35;8.10;;;;;;;-1.61;87.31;101279.78;10628706;27;20486;-71
2022/12/22 08:02:39;;;;;;;29.30;8.98;;;;;;;-1.35;87.17;101311.63;10628473;27;20440;-71
2022/12/22 08:07:39;;;;;;;16.73;8.63;;;;;;;-0.90;87.19;101374.84;10628388;27;20043;-71
2022/12/22 08:12:40;;;;;;;14.70;7.07;;;;;;;-0.78;87.83;101363.84;10628350;27;20043;-71
2022/12/22 08:17:41;;;;;;;10.63;6.97;;;;;;;-0.76;87.82;101343.75;10629755;27;20035;-71
2022/12/22 08:22:42;;;;;;;12.70;7.90;;;;;;;-0.78;87.55;101324.72;10627810;27;20514;-71
2022/12/22 08:27:49;;;;;;;15.57;8.73;;;;;;;-0.61;87.50;101343.03;10628103;27;20035;-71
2022/12/22 08:32:51;;;;;;;24.90;9.30;;;;;;;-0.77;87.23;101305.56;10627586;27;20122;-71
2022/12/22 08:37:52;;;;;;;19.50;8.88;;;;;;;-0.40;87.32;101354.25;10628039;27;20099;-72
2022/12/22 08:42:59;;;;;;;17.20;8.20;;;;;;;-0.66;86.81;101269.34;10627972;27;20035;-72
2022/12/22 08:47:59;;;;;;;21.70;10.13;;;;;;;-0.08;87.06;101342.25;10609182;27;20059;-72
2022/12/22 08:53:02;;;;;;;17.17;9.38;;;;;;;0.10;87.25;101337.88;10626947;27;20146;-72
2022/12/22 08:58:03;;;;;;;14.15;9.32;;;;;;;0.48;86.47;101336.84;10627062;27;20039;-72
2022/12/22 09:03:04;;;;;;;14.40;8.70;;;;;;;0.63;86.46;101344.78;10627016;27;20047;-72
2022/12/22 09:08:05;;;;;;;14.48;9.20;;;;;;;0.16;86.33;101240.91;10626475;27;20501;-72
2022/12/22 09:13:05;;;;;;;18.75;9.23;;;;;;;0.65;86.63;101314.13;10626430;27;20045;-72
2022/12/22 09:18:06;;;;;;;17.77;10.13;;;;;;;0.21;86.66;101235.44;10626204;27;20039;-73
2022/12/22 09:23:07;;;;;;;15.05;9.45;;;;;;;0.87;86.80;101316.47;10626623;27;20039;-72
2022/12/22 09:28:07;;;;;;;17.10;9.82;;;;;;;0.94;86.21;101300.44;10607322;27;20037;-72
2022/12/22 09:33:08;;;;;;;19.30;10.50;;;;;;;0.29;86.34;101196.66;10625587;27;20046;-73
2022/12/22 09:38:09;;;;;;;18.85;10.32;;;;;;;0.85;87.03;101299.16;10625365;27;20035;-73
2022/12/22 09:43:16;;;;;;;15.23;9.40;;;;;;;0.85;87.10;101304.41;10625458;27;20054;-73
2022/12/22 09:48:16;;;;;;;16.38;10.30;;;;;;;0.87;87.38;101286.88;10586590;27;20481;-73
2022/12/22 09:53:22;;;;;;;19.58;11.10;;;;;;;0.90;87.18;101289.31;10581529;28;20122;-73
2022/12/22 09:58:29;;;;;;;20.10;11.30;;;;;;;1.02;86.67;101278.19;10581271;28;20032;-72
2022/12/22 10:03:36;;;;;;;19.20;10.90;;;;;;;1.08;86.55;101277.00;10581118;28;20043;-73
2022/12/22 10:08:39;;;;;;;17.20;10.60;;;;;;;0.62;87.26;101214.94;10581481;28;20495;-73
2022/12/22 10:13:41;;;;;;;24.95;11.88;;;;;;;1.09;87.66;101266.44;10581801;28;20031;-73
2022/12/22 10:18:58;;;;;;;27.17;12.18;;;;;;;1.24;87.26;101261.28;10579645;28;20036;-73
2022/12/22 10:23:58;;;;;;;21.77;11.23;;;;;;;1.33;87.56;101271.25;10580835;28;20074;-73
2022/12/22 10:29:09;;;;;;;20.27;11.25;;;;;;;0.86;87.53;101170.91;10580901;28;20067;-73
2022/12/22 10:34:12;;;;;;;20.02;11.45;;;;;;;1.58;87.82;101253.19;10580089;28;20525;-73
2022/12/22 10:39:21;;;;;;;23.30;11.97;;;;;;;1.22;87.43;101177.59;10581221;28;20047;-73
2022/12/22 10:44:28;;;;;;;19.00;11.93;;;;;;;1.14;88.04;101180.69;10579510;28;20079;-72
2022/12/22 10:49:37;;;;;;;20.50;10.85;;;;;;;1.42;88.63;101251.56;10611158;27;20086;-73
2022/12/22 10:54:41;;;;;;;22.42;10.93;;;;;;;1.30;89.28;101247.84;10622232;27;20035;-73
2022/12/22 10:59:51;;;;;;;20.63;11.80;;;;;;;1.44;89.79;101241.84;10604019;27;20039;-72
2022/12/22 11:04:53;;;;;;;22.10;11.82;;;;;;;1.08;89.10;101181.03;10622262;27;20042;-72
2022/12/22 11:09:54;;;;;;;19.80;12.32;;;;;;;1.33;89.33;101206.63;10622288;28;20465;-73
2022/12/22 11:15:18;;;;;;;19.52;12.30;;;;;;;1.61;89.64;101233.84;10622098;28;20089;-73
2022/12/22 11:20:43;;;;;;;20.02;12.27;;;;;;;1.73;89.70;101237.53;10622048;28;20092;-72
2022/12/22 11:25:55;;;;;;;21.23;13.40;;;;;;;1.33;89.63;101162.13;10621741;28;20039;-73
2022/12/22 11:31:26;;;;;;;19.00;12.40;;;;;;;1.82;89.90;101231.75;10630182;27;20448;-72
2022/12/22 11:36:55;;;;;;;27.10;13.50;;;;;;;1.94;90.30;101228.41;10630806;27;20043;-73
2022/12/22 11:42:20;;;;;;;26.27;15.50;;;;;;;2.06;90.20;101229.47;10629313;27;20035;-73
2022/12/22 11:47:41;;;;;;;20.85;13.55;;;;;;;1.74;89.46;101168.53;10629859;27;20143;-72
2022/12/22 11:53:03;;;;;;;20.40;13.10;;;;;;;1.66;89.77;101149.78;10629423;27;20092;-72
2022/12/22 11:58:31;;;;;;;24.35;13.18;;;;;;;2.05;90.02;101222.56;10630034;27;20042;-72
2022/12/22 12:04:02;;;;;;;33.17;12.48;;;;;;;2.08;90.91;101217.13;10629230;27;20092;-73
2022/12/22 12:09:16;;;;;;;18.48;11.48;;;;;;;1.93;90.70;101194.47;10602815;27;20046;-73
2022/12/22 12:15:03;;;;;;;23.77;13.77;;;;;;;2.11;91.02;101226.59;10619737;27;20039;-73
2022/12/22 12:20:22;;;;;;;28.45;17.27;;;;;;;2.12;90.71;101231.72;10617656;27;20116;-74
2022/12/22 12:25:38;;;;;;;27.42;13.85;;;;;;;1.93;90.65;101195.28;10611410;27;20066;-75
2022/12/22 12:30:54;;;;;;;23.52;14.18;;;;;;;2.09;91.07;101228.44;10609460;27;20055;-72
2022/12/22 12:36:07;;;;;;;19.70;12.25;;;;;;;1.95;90.90;101242.38;10590445;27;20435;-73
2022/12/22 12:41:39;;;;;;;19.15;12.18;;;;;;;0.81;91.67;101102.34;10583858;28;20108;-73
2022/12/22 12:46:52;;;;;;;20.33;13.73;;;;;;;1.37;92.53;101241.34;10584938;28;20063;-73
2022/12/22 12:51:54;;;;;;;21.55;13.02;;;;;;;1.13;92.37;101241.78;10608745;27;20110;-73
2022/12/22 12:56:54;;;;;;;26.27;12.75;;;;;;;1.05;93.04;101249.22;10601072;27;20035;-73
2022/12/22 13:01:58;;;;;;;23.83;12.65;;;;;;;0.71;93.22;101229.28;10617654;27;20045;-73
2022/12/22 13:06:59;;;;;;;25.20;13.10;;;;;;;0.27;93.55;101169.78;10594654;27;20044;-73
2022/12/22 13:12:33;;;;;;;22.05;12.15;;;;;;;0.64;95.39;101254.09;10583767;28;20641;-73
2022/12/22 13:17:36;;;;;;;19.73;11.02;;;;;;;0.47;94.81;101262.81;10583040;28;20403;-73
2022/12/22 13:22:39;;;;;;;24.10;12.33;;;;;;;0.37;94.55;101257.22;10615683;27;20039;-73
2022/12/22 13:27:40;;;;;;;20.20;11.82;;;;;;;-0.26;95.12;101189.09;10625421;27;20087;-73
2022/12/22 13:32:44;;;;;;;22.52;11.68;;;;;;;-0.46;95.88;101171.81;10625555;27;20516;-73
2022/12/22 13:37:47;;;;;;;25.33;12.07;;;;;;;-0.57;95.80;101180.19;10625577;27;20035;-75
2022/12/22 13:42:53;;;;;;;20.75;12.30;;;;;;;-0.23;95.66;101251.59;10597953;27;20079;-77
2022/12/22 13:47:55;;;;;;;23.60;12.75;;;;;;;-0.66;96.14;101200.66;10583929;27;20515;-76
2022/12/22 13:52:57;;;;;;;41.22;11.50;;;;;;;-0.45;95.76;101267.47;10578978;27;20031;-76
2022/12/22 13:58:05;;;;;;;25.77;12.43;;;;;;;-1.17;96.02;101167.44;10569445;27;20039;-76
2022/12/22 14:03:17;;;;;;;56.05;14.10;;;;;;;-0.94;96.81;101233.28;10566963;27;20047;-75
2022/12/22 14:08:25;;;;;;;23.88;13.07;;;;;;;-0.84;96.76;101265.84;10574159;27;20062;-76
2022/12/22 14:13:31;;;;;;;35.33;12.57;;;;;;;-0.97;96.55;101270.78;10573193;27;20043;-76
2022/12/22 14:18:32;;;;;;;25.75;13.77;;;;;;;-1.07;96.64;101271.31;10572426;27;20046;-76
2022/12/22 14:23:38;;;;;;;28.63;14.13;;;;;;;-1.63;96.63;101203.44;10566894;27;20047;-76
2022/12/22 14:28:46;;;;;;;43.13;17.25;;;;;;;-1.36;97.08;101264.81;10558726;27;20035;-76
2022/12/22 14:33:56;;;;;;;34.15;16.85;;;;;;;-1.48;97.66;101269.66;10568612;27;20039;-73
2022/12/22 14:38:58;;;;;;;27.88;14.40;;;;;;;-1.56;96.98;101266.53;10568743;28;20490;-76
2022/12/22 14:44:00;;;;;;;31.23;13.63;;;;;;;-2.17;96.81;101173.69;10582510;27;20391;-76
2022/12/22 14:49:01;;;;;;;28.73;13.25;;;;;;;-1.68;96.79;101277.47;10601757;27;20141;-76
2022/12/22 14:54:02;;;;;;;25.67;12.63;;;;;;;-1.72;96.75;101278.53;10622433;27;20049;-74
2022/12/22 14:59:20;;;;;;;24.48;12.48;;;;;;;-1.85;96.47;101279.06;10622468;27;20039;-74
2022/12/22 15:04:21;;;;;;;34.83;13.05;;;;;;;-2.01;96.52;101262.41;10592821;27;20100;-75
2022/12/22 15:09:24;;;;;;;27.42;11.20;;;;;;;-2.00;96.66;101271.06;10580140;28;20047;-74
2022/12/22 15:14:29;;;;;;;24.00;12.52;;;;;;;-2.22;95.83;101273.72;10603970;28;20126;-75
2022/12/22 15:19:33;;;;;;;28.25;12.23;;;;;;;-2.66;95.96;101211.31;10602798;28;20181;-76
2022/12/22 15:24:34;;;;;;;;;;;;;;;-2.19;95.75;101274.41;10590983;28;20104;-77
2022/12/22 15:29:35;;;;;;;23.55;11.20;;;;;;;-2.59;95.44;101265.66;10576273;28;19938;-76
2022/12/22 15:34:36;;;;;;;59.53;18.92;;;;;;;-2.61;95.75;101290.03;10577893;28;20040;-75
2022/12/22 15:39:36;;;;;;;57.70;20.08;;;;;;;-2.68;96.47;101279.03;10580896;28;20085;-76
2022/12/22 15:44:37;;;;;;;103.05;35.22;;;;;;;-2.84;96.58;101262.31;10565101;28;20039;-75
2022/12/22 15:49:38;;;;;;;37.50;15.15;;;;;;;-2.90;96.34;101288.53;10575302;28;20049;-76
2022/12/22 15:54:39;;;;;;;22.35;11.80;;;;;;;-2.95;96.43;101299.13;10564325;28;20046;-74
2022/12/22 15:59:40;;;;;;;27.98;14.25;;;;;;;-2.93;96.63;101288.66;10580172;28;20510;-74
2022/12/22 16:04:41;;;;;;;27.13;11.45;;;;;;;-3.00;96.18;101280.25;10575762;28;20101;-74
2022/12/22 16:09:44;;;;;;;25.88;12.05;;;;;;;-3.02;96.11;101290.72;10578904;28;20044;-74
2022/12/22 16:14:50;;;;;;;30.30;11.68;;;;;;;-3.10;95.87;101276.31;10592320;27;20092;-74
2022/12/22 16:19:51;;;;;;;22.42;12.15;;;;;;;-3.22;95.74;101282.81;10604932;27;20114;-76
2022/12/22 16:24:52;;;;;;;22.52;11.50;;;;;;;-3.80;95.14;101201.81;10578173;27;20414;-74
2022/12/22 16:29:53;;;;;;;26.27;11.13;;;;;;;-3.36;94.80;101296.31;10562738;28;20044;-75
2022/12/22 16:35:05;;;;;;;32.55;14.48;;;;;;;-4.34;95.22;101138.84;10569313;27;20043;-75
2022/12/22 16:40:07;;;;;;;35.17;16.58;;;;;;;-3.68;95.26;101241.19;10583383;27;20047;-74
2022/12/22 16:45:18;;;;;;;38.05;15.23;;;;;;;-3.56;94.74;101273.66;10603103;27;20082;-76
2022/12/22 16:50:31;;;;;;;40.10;16.83;;;;;;;-3.99;94.67;101217.22;10597745;27;20056;-74
2022/12/22 16:55:32;;;;;;;34.05;14.98;;;;;;;-3.54;95.20;101284.00;10604921;27;20099;-75
2022/12/22 17:00:34;;;;;;;30.40;15.18;;;;;;;-3.63;94.66;101292.13;10613719;27;20050;-75
2022/12/22 17:05:46;;;;;;;37.33;17.90;;;;;;;-3.69;94.50;101285.38;10607789;27;20154;-75
2022/12/22 17:10:47;;;;;;;36.95;17.25;;;;;;;-3.71;94.93;101280.25;10625583;27;20039;-75
2022/12/22 17:15:48;;;;;;;44.65;18.50;;;;;;;-4.09;94.48;101211.50;10626209;27;20084;-76
2022/12/22 17:20:55;;;;;;;40.45;17.33;;;;;;;-3.93;95.06;101238.59;10606823;27;20509;-76
2022/12/22 17:25:58;;;;;;;37.08;18.20;;;;;;;-3.88;94.75;101220.28;10625166;27;20565;-76
2022/12/22 17:30:58;;;;;;;46.13;17.25;;;;;;;-4.21;94.15;101171.25;10586493;27;20466;-77
2022/12/22 17:36:00;;;;;;;44.67;18.58;;;;;;;-3.80;93.79;101236.44;10623980;27;20069;-76
2022/12/22 17:41:02;;;;;;;36.00;14.55;;;;;;;-3.73;94.16;101239.66;10625275;27;20171;-76
2022/12/22 17:46:04;;;;;;;84.90;18.25;;;;;;;-3.67;94.05;101242.88;10610475;27;20051;-75
2022/12/22 17:51:05;;;;;;;58.78;17.75;;;;;;;-3.58;94.86;101244.31;10623654;27;20089;-75
2022/12/22 17:56:08;;;;;;;47.03;15.10;;;;;;;-3.90;95.23;101193.53;10623557;27;20062;-75
2022/12/22 18:01:35;;;;;;;203.95;23.13;;;;;;;-3.54;96.25;101225.09;10615093;27;20413;-74
2022/12/22 18:06:38;;;;;;;421.08;25.27;;;;;;;-3.53;96.50;101233.72;10616096;27;20045;-74
2022/12/22 18:11:39;;;;;;;251.02;23.00;;;;;;;-3.55;96.57;101227.75;10596655;27;20042;-74
2022/12/22 18:16:41;;;;;;;699.95;32.30;;;;;;;-3.62;97.09;101226.28;10566048;27;20050;-75
2022/12/22 18:21:42;;;;;;;540.28;31.42;;;;;;;-3.77;97.39;101235.47;10581045;27;20040;-75
2022/12/22 18:26:45;;;;;;;657.45;31.88;;;;;;;-3.92;97.48;101231.66;10579955;28;20429;-74
2022/12/22 18:31:46;;;;;;;190.75;19.92;;;;;;;-4.10;98.33;101216.72;10581351;28;20420;-74
2022/12/22 18:36:47;;;;;;;45.72;14.27;;;;;;;-4.67;98.48;101128.72;10587465;27;20031;-75
2022/12/22 18:41:48;;;;;;;34.38;15.65;;;;;;;-4.77;98.08;101132.53;10615916;27;20470;-75
2022/12/22 18:46:49;;;;;;;38.90;17.38;;;;;;;-5.01;97.10;101125.56;10622646;27;20410;-74
2022/12/22 18:51:50;;;;;;;40.47;17.60;;;;;;;-4.57;97.39;101198.47;10622111;27;20043;-74
2022/12/22 18:56:51;;;;;;;32.45;15.75;;;;;;;-5.20;97.22;101121.00;10622880;27;20476;-74
2022/12/22 19:01:51;;;;;;;37.15;18.80;;;;;;;-4.74;96.96;101202.44;10622396;27;20066;-75
2022/12/22 19:06:52;;;;;;;34.13;16.88;;;;;;;-5.22;96.58;101135.72;10621535;27;20458;-75
2022/12/22 19:11:53;;;;;;;31.88;15.23;;;;;;;-4.99;96.62;101189.41;10608627;27;20043;-75
2022/12/22 19:16:54;;;;;;;33.83;15.07;;;;;;;-5.42;96.53;101112.19;10615485;28;20548;-75
2022/12/22 19:21:55;;;;;;;29.58;13.90;;;;;;;-4.78;96.33;101231.94;10583680;28;20035;-75
2022/12/22 19:26:56;;;;;;;25.08;12.63;;;;;;;-4.80;95.63;101222.53;10582835;28;20039;-75
2022/12/22 19:31:56;;;;;;;54.47;17.35;;;;;;;-4.77;95.72;101218.09;10582815;28;20040;-75
2022/12/22 19:36:57;;;;;;;341.63;22.25;;;;;;;-4.72;96.12;101205.84;10592495;28;20043;-74
2022/12/22 19:41:58;;;;;;;218.93;19.25;;;;;;;-4.36;96.79;101234.88;10602940;28;20043;-74
2022/12/22 19:47:01;;;;;;;104.43;18.85;;;;;;;-4.92;96.92;101114.91;10620626;27;20069;-74
2022/12/22 19:52:02;;;;;;;55.15;16.73;;;;;;;-4.63;96.97;101152.84;10611730;27;20042;-74
2022/12/22 19:57:13;;;;;;;143.80;21.27;;;;;;;-4.26;96.97;101204.28;10629783;27;20068;-74
2022/12/22 20:02:20;;;;;;;64.00;17.73;;;;;;;-3.90;98.35;101233.31;10629963;27;20054;-74
2022/12/22 20:07:23;;;;;;;93.57;17.80;;;;;;;-3.79;98.33;101238.13;10628871;27;20042;-74
2022/12/22 20:12:33;;;;;;;81.10;19.70;;;;;;;-3.69;98.25;101221.31;10629113;27;20074;-75
2022/12/22 20:17:34;;;;;;;51.83;15.77;;;;;;;-4.23;97.74;101131.53;10628353;27;20118;-75
2022/12/22 20:22:34;;;;;;;50.00;10.82;;;;;;;-3.72;97.60;101217.97;10628604;27;20523;-75
2022/12/22 20:27:35;;;;;;;62.33;10.75;;;;;;;-3.69;97.94;101225.66;10610233;27;20119;-75
2022/12/22 20:32:36;;;;;;;51.65;9.30;;;;;;;-3.95;98.22;101187.66;10627936;27;20494;-75
2022/12/22 20:37:36;;;;;;;33.47;9.60;;;;;;;-4.31;98.59;101127.53;10627944;27;20039;-75
2022/12/22 20:42:37;;;;;;;64.95;9.05;;;;;;;-3.73;98.96;101211.94;10627204;27;20047;-74
2022/12/22 20:47:38;;;;;;;40.50;8.68;;;;;;;-3.69;99.22;101218.72;10627096;27;20422;-74
2022/12/22 20:52:39;;;;;;;21.48;10.15;;;;;;;-3.74;99.74;101186.03;10621877;27;20134;-75
2022/12/22 20:57:40;;;;;;;67.43;10.07;;;;;;;-3.47;99.57;101223.13;10620376;27;20122;-75
2022/12/22 21:02:40;;;;;;;51.25;10.80;;;;;;;-3.49;99.88;101210.19;10625455;27;20065;-75
2022/12/22 21:07:43;;;;;;;177.60;11.50;;;;;;;-3.49;99.88;101196.38;10627752;27;20043;-75
2022/12/22 21:12:44;;;;;;;19.83;8.05;;;;;;;-3.44;100.00;101207.41;10626758;27;20039;-75
2022/12/22 21:17:45;;;;;;;42.17;9.68;;;;;;;-4.00;100.00;101112.56;10626853;27;20063;-75
2022/12/22 21:22:46;;;;;;;77.00;10.85;;;;;;;-3.43;100.00;101196.13;10626763;27;20060;-75
2022/12/22 21:27:50;;;;;;;40.45;11.20;;;;;;;-3.38;100.00;101195.94;10625461;27;20034;-75
2022/12/22 21:32:51;;;;;;;26.98;10.50;;;;;;;-3.36;99.95;101202.78;10625411;27;20039;-75
2022/12/22 21:37:54;;;;;;;63.22;11.55;;;;;;;-3.41;100.00;101203.84;10625574;27;20043;-75
2022/12/22 21:42:55;;;;;;;67.30;10.32;;;;;;;-4.00;100.00;101116.91;10624883;27;20375;-75
2022/12/22 21:47:59;;;;;;;32.20;11.20;;;;;;;-3.54;100.00;101201.72;10624254;27;20055;-75
2022/12/22 21:53:01;;;;;;;74.07;11.75;;;;;;;-3.48;100.00;101203.25;10624431;27;20038;-75
2022/12/22 21:58:03;;;;;;;59.50;12.65;;;;;;;-3.49;100.00;101196.38;10611214;27;20042;-75
2022/12/22 22:03:04;;;;;;;58.75;12.13;;;;;;;-3.53;100.00;101199.97;10624402;27;20418;-75
2022/12/22 22:08:09;;;;;;;40.40;11.73;;;;;;;-3.67;100.00;101188.34;10623729;27;20092;-74
2022/12/22 22:13:14;;;;;;;50.40;12.52;;;;;;;-3.57;100.00;101193.19;10624113;27;20092;-75
2022/12/22 22:18:19;;;;;;;81.78;12.30;;;;;;;-4.11;100.00;101119.88;10624055;27;20088;-74
2022/12/22 22:23:19;;;;;;;64.05;12.40;;;;;;;-3.73;100.00;101203.31;10623721;27;20054;-75
2022/12/22 22:28:20;;;;;;;84.20;12.68;;;;;;;-3.84;100.00;101169.94;10623513;27;20046;-75
2022/12/22 22:33:21;;;;;;;50.22;10.65;;;;;;;-4.04;100.00;101136.06;10623011;27;20126;-72
2022/12/22 22:38:22;;;;;;;27.65;10.95;;;;;;;-3.79;100.00;101182.78;10623374;27;20035;-74
2022/12/22 22:43:23;;;;;;;57.65;11.57;;;;;;;-3.86;100.00;101187.31;10604687;27;20043;-75
2022/12/22 22:48:23;;;;;;;51.70;10.68;;;;;;;-3.79;100.00;101203.53;10623506;27;20119;-75
2022/12/22 22:53:24;;;;;;;92.28;12.68;;;;;;;-3.77;100.00;101215.56;10623300;27;20050;-74
2022/12/22 22:58:25;;;;;;;95.70;11.13;;;;;;;-3.72;100.00;101218.81;10622755;27;20038;-74
2022/12/22 23:03:25;;;;;;;71.70;11.10;;;;;;;-3.74;100.00;101223.25;10621769;27;20120;-74
2022/12/22 23:08:26;;;;;;;65.70;10.80;;;;;;;-3.89;100.00;101208.19;10622652;27;20492;-74
2022/12/22 23:13:27;;;;;;;62.33;11.63;;;;;;;-3.81;100.00;101229.53;10622484;28;20040;-74
2022/12/22 23:18:30;;;;;;;74.50;11.55;;;;;;;-3.89;100.00;101215.97;10621994;28;20050;-74
2022/12/22 23:23:32;;;;;;;155.95;13.40;;;;;;;-3.94;100.00;101202.34;10606291;27;20050;-74
2022/12/22 23:28:33;;;;;;;62.65;10.88;;;;;;;-4.16;100.00;101158.97;10630387;27;20030;-74
2022/12/22 23:33:34;;;;;;;119.20;12.27;;;;;;;-3.69;100.00;101236.88;10630269;27;20474;-74
2022/12/22 23:38:35;;;;;;;62.42;11.10;;;;;;;-4.25;100.00;101129.91;10535852;28;20062;-74
2022/12/22 23:43:36;;;;;;;209.27;12.00;;;;;;;-3.62;100.00;101215.88;10545963;28;20503;-74
2022/12/22 23:48:40;;;;;;;255.30;14.68;;;;;;;-3.51;100.00;101224.13;10588606;27;20055;-74
2022/12/22 23:53:41;;;;;;;102.82;9.63;;;;;;;-3.46;100.00;101217.03;10629268;27;20038;-75
2022/12/22 23:58:42;;;;;;;76.78;11.00;;;;;;;-4.05;100.00;101088.53;10611482;27;20050;-75
